sensor_id;sensor_type;location;lat;lon;timestamp;P1;durP1;ratioP1;P2;durP2;ratioP2
32094;SDS011;18608;53.688;10.748;2022-09-01T00:02:12;1.27;;;1.17;;
32094;SDS011;18608;53.688;10.748;2022-09-01T00:04:40;1.73;;;1.00;;
32094;SDS011;18608;53.688;10.748;2022-09-01T00:07:10;1.50;;;1.40;;
32094;SDS011;18608;53.688;10.748;2022-09-01T00:09:37;1.30;;;1.20;;
32094;SDS011;18608;53.688;10.748;2022-09-01T00:12:04;1.93;;;1.00;;
32094;SDS011;18608;53.688;10.748;2022-09-01T00:14:32;1.10;;;1.10;;
32094;SDS011;18608;53.688;10.748;2022-09-01T00:17:02;1.40;;;1.30;;
32094;SDS011;18608;53.688;10.748;2022-09-01T00:19:30;1.63;;;1.00;;
32094;SDS011;18608;53.688;10.748;2022-09-01T00:21:57;0.90;;;0.90;;
32094;SDS011;18608;53.688;10.748;2022-09-01T00:24:24;1.53;;;1.43;;
32094;SDS011;18608;53.688;10.748;2022-09-01T00:26:51;1.10;;;1.00;;
32094;SDS011;18608;53.688;10.748;2022-09-01T00:29:17;1.30;;;1.20;;
32094;SDS011;18608;53.688;10.748;2022-09-01T00:31:43;1.43;;;1.33;;
32094;SDS011;18608;53.688;10.748;2022-09-01T00:34:09;1.40;;;1.13;;
32094;SDS011;18608;53.688;10.748;2022-09-01T00:36:35;0.87;;;0.87;;
32094;SDS011;18608;53.688;10.748;2022-09-01T00:39:01;2.03;;;1.83;;
32094;SDS011;18608;53.688;10.748;2022-09-01T00:41:28;2.10;;;1.33;;
32094;SDS011;18608;53.688;10.748;2022-09-01T00:43:58;1.40;;;1.30;;
32094;SDS011;18608;53.688;10.748;2022-09-01T00:46:27;1.87;;;1.77;;
32094;SDS011;18608;53.688;10.748;2022-09-01T00:48:58;1.10;;;1.10;;
32094;SDS011;18608;53.688;10.748;2022-09-01T00:51:27;1.33;;;1.23;;
32094;SDS011;18608;53.688;10.748;2022-09-01T00:53:53;5.17;;;1.20;;
32094;SDS011;18608;53.688;10.748;2022-09-01T00:56:20;1.43;;;1.33;;
32094;SDS011;18608;53.688;10.748;2022-09-01T00:58:47;1.40;;;1.30;;
32094;SDS011;18608;53.688;10.748;2022-09-01T01:01:13;1.87;;;1.77;;
32094;SDS011;18608;53.688;10.748;2022-09-01T01:03:39;11.83;;;1.87;;
32094;SDS011;18608;53.688;10.748;2022-09-01T01:06:11;2.80;;;1.60;;
32094;SDS011;18608;53.688;10.748;2022-09-01T01:08:40;1.70;;;1.60;;
32094;SDS011;18608;53.688;10.748;2022-09-01T01:11:13;1.90;;;1.80;;
32094;SDS011;18608;53.688;10.748;2022-09-01T01:13:58;1.60;;;1.50;;
32094;SDS011;18608;53.688;10.748;2022-09-01T01:16:36;3.67;;;1.77;;
32094;SDS011;18608;53.688;10.748;2022-09-01T01:19:55;2.20;;;2.00;;
32094;SDS011;18608;53.688;10.748;2022-09-01T01:22:46;2.23;;;2.07;;
32094;SDS011;18608;53.688;10.748;2022-09-01T01:25:26;2.30;;;1.60;;
32094;SDS011;18608;53.688;10.748;2022-09-01T01:28:09;5.83;;;1.77;;
32094;SDS011;18608;53.688;10.748;2022-09-01T01:30:36;1.90;;;1.80;;
32094;SDS011;18608;53.688;10.748;2022-09-01T01:33:03;1.60;;;1.50;;
32094;SDS011;18608;53.688;10.748;2022-09-01T01:35:30;1.87;;;1.67;;
32094;SDS011;18608;53.688;10.748;2022-09-01T01:37:58;2.40;;;1.40;;
32094;SDS011;18608;53.688;10.748;2022-09-01T01:40:25;1.70;;;1.60;;
32094;SDS011;18608;53.688;10.748;2022-09-01T01:42:53;1.77;;;1.67;;
32094;SDS011;18608;53.688;10.748;2022-09-01T01:45:20;7.83;;;1.83;;
32094;SDS011;18608;53.688;10.748;2022-09-01T01:47:48;1.57;;;1.47;;
32094;SDS011;18608;53.688;10.748;2022-09-01T01:50:17;1.70;;;1.60;;
32094;SDS011;18608;53.688;10.748;2022-09-01T01:52:52;1.80;;;1.70;;
32094;SDS011;18608;53.688;10.748;2022-09-01T01:55:18;2.83;;;1.50;;
32094;SDS011;18608;53.688;10.748;2022-09-01T01:57:46;1.30;;;1.20;;
32094;SDS011;18608;53.688;10.748;2022-09-01T02:00:16;1.30;;;1.20;;
32094;SDS011;18608;53.688;10.748;2022-09-01T02:02:47;2.27;;;2.10;;
32094;SDS011;18608;53.688;10.748;2022-09-01T02:05:25;1.57;;;1.47;;
32094;SDS011;18608;53.688;10.748;2022-09-01T02:07:54;1.40;;;1.30;;
32094;SDS011;18608;53.688;10.748;2022-09-01T02:10:24;1.73;;;1.63;;
32094;SDS011;18608;53.688;10.748;2022-09-01T02:12:51;3.30;;;1.53;;
32094;SDS011;18608;53.688;10.748;2022-09-01T02:15:18;2.60;;;1.70;;
32094;SDS011;18608;53.688;10.748;2022-09-01T02:17:44;3.00;;;2.23;;
32094;SDS011;18608;53.688;10.748;2022-09-01T02:20:11;2.53;;;2.00;;
32094;SDS011;18608;53.688;10.748;2022-09-01T02:22:40;4.73;;;2.47;;
32094;SDS011;18608;53.688;10.748;2022-09-01T02:25:08;2.30;;;2.00;;
32094;SDS011;18608;53.688;10.748;2022-09-01T02:27:35;2.33;;;2.23;;
32094;SDS011;18608;53.688;10.748;2022-09-01T02:30:03;4.90;;;2.50;;
32094;SDS011;18608;53.688;10.748;2022-09-01T02:32:34;4.87;;;2.80;;
32094;SDS011;18608;53.688;10.748;2022-09-01T02:35:01;2.20;;;2.10;;
32094;SDS011;18608;53.688;10.748;2022-09-01T02:37:31;7.90;;;2.00;;
32094;SDS011;18608;53.688;10.748;2022-09-01T02:39:56;3.00;;;2.50;;
32094;SDS011;18608;53.688;10.748;2022-09-01T02:42:22;2.80;;;2.20;;
32094;SDS011;18608;53.688;10.748;2022-09-01T02:44:51;2.10;;;2.00;;
32094;SDS011;18608;53.688;10.748;2022-09-01T02:47:21;3.47;;;2.00;;
32094;SDS011;18608;53.688;10.748;2022-09-01T02:49:50;1.53;;;1.53;;
32094;SDS011;18608;53.688;10.748;2022-09-01T02:52:16;9.00;;;1.83;;
32094;SDS011;18608;53.688;10.748;2022-09-01T02:54:44;3.50;;;3.30;;
32094;SDS011;18608;53.688;10.748;2022-09-01T02:57:13;3.30;;;2.00;;
32094;SDS011;18608;53.688;10.748;2022-09-01T02:59:39;1.97;;;1.87;;
32094;SDS011;18608;53.688;10.748;2022-09-01T03:02:06;2.17;;;2.07;;
32094;SDS011;18608;53.688;10.748;2022-09-01T03:04:32;2.60;;;1.83;;
32094;SDS011;18608;53.688;10.748;2022-09-01T03:06:59;6.50;;;2.00;;
32094;SDS011;18608;53.688;10.748;2022-09-01T03:09:29;2.20;;;2.00;;
32094;SDS011;18608;53.688;10.748;2022-09-01T03:11:56;2.13;;;1.93;;
32094;SDS011;18608;53.688;10.748;2022-09-01T03:14:23;1.70;;;1.60;;
32094;SDS011;18608;53.688;10.748;2022-09-01T03:16:49;4.40;;;1.90;;
32094;SDS011;18608;53.688;10.748;2022-09-01T03:19:15;3.67;;;1.83;;
32094;SDS011;18608;53.688;10.748;2022-09-01T03:21:43;1.90;;;1.80;;
32094;SDS011;18608;53.688;10.748;2022-09-01T03:24:09;1.97;;;1.87;;
32094;SDS011;18608;53.688;10.748;2022-09-01T03:26:39;1.90;;;1.80;;
32094;SDS011;18608;53.688;10.748;2022-09-01T03:29:05;2.73;;;1.97;;
32094;SDS011;18608;53.688;10.748;2022-09-01T03:31:31;3.33;;;1.30;;
32094;SDS011;18608;53.688;10.748;2022-09-01T03:33:57;2.63;;;1.70;;
32094;SDS011;18608;53.688;10.748;2022-09-01T03:36:24;3.40;;;1.70;;
32094;SDS011;18608;53.688;10.748;2022-09-01T03:38:52;3.80;;;1.53;;
32094;SDS011;18608;53.688;10.748;2022-09-01T03:41:21;1.93;;;1.83;;
32094;SDS011;18608;53.688;10.748;2022-09-01T03:43:49;6.30;;;1.60;;
32094;SDS011;18608;53.688;10.748;2022-09-01T03:46:15;1.47;;;1.37;;
32094;SDS011;18608;53.688;10.748;2022-09-01T03:48:46;1.73;;;1.43;;
32094;SDS011;18608;53.688;10.748;2022-09-01T03:51:14;1.73;;;1.63;;
32094;SDS011;18608;53.688;10.748;2022-09-01T03:53:39;7.93;;;2.77;;
32094;SDS011;18608;53.688;10.748;2022-09-01T03:56:05;1.60;;;1.50;;
32094;SDS011;18608;53.688;10.748;2022-09-01T03:58:33;2.47;;;2.27;;
32094;SDS011;18608;53.688;10.748;2022-09-01T04:00:59;1.83;;;1.73;;
32094;SDS011;18608;53.688;10.748;2022-09-01T04:03:27;1.67;;;1.57;;
32094;SDS011;18608;53.688;10.748;2022-09-01T04:05:56;2.80;;;2.00;;
32094;SDS011;18608;53.688;10.748;2022-09-01T04:08:24;3.10;;;1.83;;
32094;SDS011;18608;53.688;10.748;2022-09-01T04:10:56;3.63;;;1.73;;
32094;SDS011;18608;53.688;10.748;2022-09-01T04:15:50;1.80;;;1.70;;
32094;SDS011;18608;53.688;10.748;2022-09-01T04:18:17;1.90;;;1.80;;
32094;SDS011;18608;53.688;10.748;2022-09-01T04:20:48;1.70;;;1.60;;
32094;SDS011;18608;53.688;10.748;2022-09-01T04:25:46;4.83;;;1.70;;
32094;SDS011;18608;53.688;10.748;2022-09-01T04:28:14;1.63;;;1.53;;
32094;SDS011;18608;53.688;10.748;2022-09-01T04:30:51;2.30;;;2.10;;
32094;SDS011;18608;53.688;10.748;2022-09-01T04:33:20;1.90;;;1.80;;
32094;SDS011;18608;53.688;10.748;2022-09-01T04:35:47;8.83;;;2.03;;
32094;SDS011;18608;53.688;10.748;2022-09-01T04:38:16;2.10;;;1.87;;
32094;SDS011;18608;53.688;10.748;2022-09-01T04:40:42;2.30;;;1.67;;
32094;SDS011;18608;53.688;10.748;2022-09-01T04:43:08;2.07;;;1.70;;
32094;SDS011;18608;53.688;10.748;2022-09-01T04:45:35;2.00;;;1.80;;
32094;SDS011;18608;53.688;10.748;2022-09-01T04:48:01;4.50;;;1.60;;
32094;SDS011;18608;53.688;10.748;2022-09-01T04:50:29;3.83;;;1.87;;
32094;SDS011;18608;53.688;10.748;2022-09-01T04:52:57;3.33;;;2.20;;
32094;SDS011;18608;53.688;10.748;2022-09-01T04:55:26;2.23;;;2.13;;
32094;SDS011;18608;53.688;10.748;2022-09-01T04:57:53;2.70;;;2.50;;
32094;SDS011;18608;53.688;10.748;2022-09-01T05:00:21;4.27;;;2.63;;
32094;SDS011;18608;53.688;10.748;2022-09-01T05:02:52;4.50;;;2.37;;
32094;SDS011;18608;53.688;10.748;2022-09-01T05:05:20;9.67;;;4.43;;
32094;SDS011;18608;53.688;10.748;2022-09-01T05:07:46;5.53;;;3.40;;
32094;SDS011;18608;53.688;10.748;2022-09-01T05:10:18;4.07;;;3.63;;
32094;SDS011;18608;53.688;10.748;2022-09-01T05:12:44;4.73;;;3.43;;
32094;SDS011;18608;53.688;10.748;2022-09-01T05:15:10;3.80;;;3.50;;
32094;SDS011;18608;53.688;10.748;2022-09-01T05:17:38;4.13;;;3.60;;
32094;SDS011;18608;53.688;10.748;2022-09-01T05:20:04;3.70;;;3.40;;
32094;SDS011;18608;53.688;10.748;2022-09-01T05:22:31;8.87;;;3.50;;
32094;SDS011;18608;53.688;10.748;2022-09-01T05:24:57;3.57;;;3.27;;
32094;SDS011;18608;53.688;10.748;2022-09-01T05:27:36;3.00;;;2.80;;
32094;SDS011;18608;53.688;10.748;2022-09-01T05:30:03;5.00;;;3.30;;
32094;SDS011;18608;53.688;10.748;2022-09-01T05:32:32;7.73;;;3.80;;
32094;SDS011;18608;53.688;10.748;2022-09-01T05:35:01;5.43;;;3.30;;
32094;SDS011;18608;53.688;10.748;2022-09-01T05:37:32;3.33;;;3.03;;
32094;SDS011;18608;53.688;10.748;2022-09-01T05:39:58;5.90;;;3.20;;
32094;SDS011;18608;53.688;10.748;2022-09-01T05:42:24;3.60;;;3.30;;
32094;SDS011;18608;53.688;10.748;2022-09-01T05:44:52;5.83;;;3.00;;
32094;SDS011;18608;53.688;10.748;2022-09-01T05:47:18;4.67;;;2.80;;
32094;SDS011;18608;53.688;10.748;2022-09-01T05:49:45;3.70;;;2.90;;
32094;SDS011;18608;53.688;10.748;2022-09-01T05:52:11;5.40;;;2.70;;
32094;SDS011;18608;53.688;10.748;2022-09-01T05:54:37;5.90;;;2.67;;
32094;SDS011;18608;53.688;10.748;2022-09-01T05:57:05;9.23;;;2.80;;
32094;SDS011;18608;53.688;10.748;2022-09-01T05:59:31;3.03;;;2.33;;
32094;SDS011;18608;53.688;10.748;2022-09-01T06:01:58;3.07;;;1.97;;
32094;SDS011;18608;53.688;10.748;2022-09-01T06:04:24;5.53;;;2.07;;
32094;SDS011;18608;53.688;10.748;2022-09-01T06:06:51;3.40;;;1.70;;
32094;SDS011;18608;53.688;10.748;2022-09-01T06:09:19;2.57;;;1.73;;
32094;SDS011;18608;53.688;10.748;2022-09-01T06:11:47;2.63;;;1.70;;
32094;SDS011;18608;53.688;10.748;2022-09-01T06:14:13;1.67;;;1.57;;
32094;SDS011;18608;53.688;10.748;2022-09-01T06:16:41;1.60;;;1.30;;
32094;SDS011;18608;53.688;10.748;2022-09-01T06:19:07;4.60;;;1.57;;
32094;SDS011;18608;53.688;10.748;2022-09-01T06:21:34;1.97;;;1.60;;
32094;SDS011;18608;53.688;10.748;2022-09-01T06:24:00;1.83;;;1.73;;
32094;SDS011;18608;53.688;10.748;2022-09-01T06:26:29;2.50;;;2.20;;
32094;SDS011;18608;53.688;10.748;2022-09-01T06:28:57;1.70;;;1.60;;
32094;SDS011;18608;53.688;10.748;2022-09-01T06:31:26;4.20;;;1.60;;
32094;SDS011;18608;53.688;10.748;2022-09-01T06:33:58;2.10;;;1.60;;
32094;SDS011;18608;53.688;10.748;2022-09-01T06:36:25;1.07;;;1.00;;
32094;SDS011;18608;53.688;10.748;2022-09-01T06:38:51;1.40;;;1.20;;
32094;SDS011;18608;53.688;10.748;2022-09-01T06:41:19;3.97;;;1.73;;
32094;SDS011;18608;53.688;10.748;2022-09-01T06:43:46;5.50;;;1.47;;
32094;SDS011;18608;53.688;10.748;2022-09-01T06:46:13;0.97;;;0.97;;
32094;SDS011;18608;53.688;10.748;2022-09-01T06:48:40;1.10;;;1.00;;
32094;SDS011;18608;53.688;10.748;2022-09-01T06:51:11;1.47;;;1.20;;
32094;SDS011;18608;53.688;10.748;2022-09-01T06:53:39;2.63;;;1.33;;
32094;SDS011;18608;53.688;10.748;2022-09-01T06:56:06;1.50;;;1.40;;
32094;SDS011;18608;53.688;10.748;2022-09-01T06:58:34;1.70;;;1.43;;
32094;SDS011;18608;53.688;10.748;2022-09-01T07:01:08;1.40;;;1.30;;
32094;SDS011;18608;53.688;10.748;2022-09-01T07:03:43;5.77;;;1.40;;
32094;SDS011;18608;53.688;10.748;2022-09-01T07:06:11;2.90;;;1.30;;
32094;SDS011;18608;53.688;10.748;2022-09-01T07:08:38;1.10;;;1.00;;
32094;SDS011;18608;53.688;10.748;2022-09-01T07:11:13;1.13;;;0.93;;
32094;SDS011;18608;53.688;10.748;2022-09-01T07:13:47;1.23;;;0.93;;
32094;SDS011;18608;53.688;10.748;2022-09-01T07:16:17;0.83;;;0.80;;
32094;SDS011;18608;53.688;10.748;2022-09-01T07:18:46;0.93;;;0.83;;
32094;SDS011;18608;53.688;10.748;2022-09-01T07:21:12;0.80;;;0.80;;
32094;SDS011;18608;53.688;10.748;2022-09-01T07:23:38;9.77;;;0.90;;
32094;SDS011;18608;53.688;10.748;2022-09-01T07:26:05;1.03;;;0.87;;
32094;SDS011;18608;53.688;10.748;2022-09-01T07:28:31;1.83;;;0.80;;
32094;SDS011;18608;53.688;10.748;2022-09-01T07:30:58;0.97;;;0.70;;
32094;SDS011;18608;53.688;10.748;2022-09-01T07:33:24;1.27;;;0.70;;
32094;SDS011;18608;53.688;10.748;2022-09-01T07:35:51;4.63;;;1.00;;
32094;SDS011;18608;53.688;10.748;2022-09-01T07:38:19;1.23;;;0.80;;
32094;SDS011;18608;53.688;10.748;2022-09-01T07:40:45;0.70;;;0.70;;
32094;SDS011;18608;53.688;10.748;2022-09-01T07:43:14;1.37;;;0.73;;
32094;SDS011;18608;53.688;10.748;2022-09-01T07:45:47;0.80;;;0.80;;
32094;SDS011;18608;53.688;10.748;2022-09-01T07:48:15;2.23;;;0.80;;
32094;SDS011;18608;53.688;10.748;2022-09-01T07:50:45;0.80;;;0.70;;
32094;SDS011;18608;53.688;10.748;2022-09-01T07:53:22;1.53;;;0.80;;
32094;SDS011;18608;53.688;10.748;2022-09-01T07:55:55;1.93;;;0.80;;
32094;SDS011;18608;53.688;10.748;2022-09-01T07:58:24;1.03;;;0.70;;
32094;SDS011;18608;53.688;10.748;2022-09-01T08:00:50;1.80;;;0.90;;
32094;SDS011;18608;53.688;10.748;2022-09-01T08:03:18;1.67;;;0.80;;
32094;SDS011;18608;53.688;10.748;2022-09-01T08:05:45;3.10;;;0.90;;
32094;SDS011;18608;53.688;10.748;2022-09-01T08:08:12;0.80;;;0.80;;
32094;SDS011;18608;53.688;10.748;2022-09-01T08:10:42;0.97;;;0.63;;
32094;SDS011;18608;53.688;10.748;2022-09-01T08:13:09;0.70;;;0.70;;
32094;SDS011;18608;53.688;10.748;2022-09-01T08:15:36;1.10;;;0.70;;
32094;SDS011;18608;53.688;10.748;2022-09-01T08:18:03;3.77;;;0.80;;
32094;SDS011;18608;53.688;10.748;2022-09-01T08:20:29;1.23;;;0.87;;
32094;SDS011;18608;53.688;10.748;2022-09-01T08:22:59;1.80;;;0.80;;
32094;SDS011;18608;53.688;10.748;2022-09-01T08:25:25;1.10;;;1.00;;
32094;SDS011;18608;53.688;10.748;2022-09-01T08:27:51;0.70;;;0.70;;
32094;SDS011;18608;53.688;10.748;2022-09-01T08:30:17;0.80;;;0.80;;
32094;SDS011;18608;53.688;10.748;2022-09-01T08:32:43;0.90;;;0.80;;
32094;SDS011;18608;53.688;10.748;2022-09-01T08:35:09;0.70;;;0.70;;
32094;SDS011;18608;53.688;10.748;2022-09-01T08:37:37;1.03;;;0.73;;
32094;SDS011;18608;53.688;10.748;2022-09-01T08:40:04;1.20;;;0.80;;
32094;SDS011;18608;53.688;10.748;2022-09-01T08:45:03;0.70;;;0.70;;
32094;SDS011;18608;53.688;10.748;2022-09-01T08:47:50;0.83;;;0.70;;
32094;SDS011;18608;53.688;10.748;2022-09-01T08:50:17;2.50;;;0.70;;
32094;SDS011;18608;53.688;10.748;2022-09-01T08:52:46;1.27;;;0.80;;
32094;SDS011;18608;53.688;10.748;2022-09-01T08:55:33;0.90;;;0.80;;
32094;SDS011;18608;53.688;10.748;2022-09-01T08:58:02;3.47;;;0.90;;
32094;SDS011;18608;53.688;10.748;2022-09-01T09:00:30;0.80;;;0.70;;
32094;SDS011;18608;53.688;10.748;2022-09-01T09:11:00;2.30;;;0.70;;
32094;SDS011;18608;53.688;10.748;2022-09-01T09:13:33;1.57;;;0.70;;
32094;SDS011;18608;53.688;10.748;2022-09-01T09:16:07;5.70;;;0.70;;
32094;SDS011;18608;53.688;10.748;2022-09-01T09:21:15;0.73;;;0.70;;
32094;SDS011;18608;53.688;10.748;2022-09-01T09:23:45;1.47;;;0.90;;
32094;SDS011;18608;53.688;10.748;2022-09-01T09:26:24;1.27;;;0.80;;
32094;SDS011;18608;53.688;10.748;2022-09-01T09:28:53;1.30;;;0.73;;
32094;SDS011;18608;53.688;10.748;2022-09-01T09:31:32;1.00;;;0.70;;
32094;SDS011;18608;53.688;10.748;2022-09-01T09:37:14;0.70;;;0.70;;
32094;SDS011;18608;53.688;10.748;2022-09-01T09:42:40;1.07;;;0.93;;
32094;SDS011;18608;53.688;10.748;2022-09-01T09:45:26;1.23;;;1.13;;
32094;SDS011;18608;53.688;10.748;2022-09-01T09:47:56;1.63;;;1.00;;
32094;SDS011;18608;53.688;10.748;2022-09-01T09:52:50;3.27;;;0.83;;
32094;SDS011;18608;53.688;10.748;2022-09-01T09:55:20;0.83;;;0.73;;
32094;SDS011;18608;53.688;10.748;2022-09-01T09:57:59;2.50;;;1.00;;
32094;SDS011;18608;53.688;10.748;2022-09-01T10:00:33;4.73;;;0.97;;
32094;SDS011;18608;53.688;10.748;2022-09-01T10:03:00;0.70;;;0.70;;
32094;SDS011;18608;53.688;10.748;2022-09-01T10:07:55;1.03;;;0.90;;
32094;SDS011;18608;53.688;10.748;2022-09-01T10:12:56;0.97;;;0.80;;
32094;SDS011;18608;53.688;10.748;2022-09-01T10:15:24;4.10;;;0.70;;
32094;SDS011;18608;53.688;10.748;2022-09-01T10:17:52;1.10;;;0.90;;
32094;SDS011;18608;53.688;10.748;2022-09-01T10:20:23;1.00;;;0.90;;
32094;SDS011;18608;53.688;10.748;2022-09-01T10:22:50;3.10;;;1.00;;
32094;SDS011;18608;53.688;10.748;2022-09-01T10:25:27;1.10;;;0.87;;
32094;SDS011;18608;53.688;10.748;2022-09-01T10:28:18;1.43;;;1.00;;
32094;SDS011;18608;53.688;10.748;2022-09-01T10:30:48;1.07;;;1.03;;
32094;SDS011;18608;53.688;10.748;2022-09-01T10:33:17;0.80;;;0.80;;
32094;SDS011;18608;53.688;10.748;2022-09-01T10:35:45;2.83;;;0.90;;
32094;SDS011;18608;53.688;10.748;2022-09-01T10:38:18;2.77;;;1.10;;
32094;SDS011;18608;53.688;10.748;2022-09-01T10:40:45;0.60;;;0.60;;
32094;SDS011;18608;53.688;10.748;2022-09-01T10:43:22;1.10;;;1.00;;
32094;SDS011;18608;53.688;10.748;2022-09-01T10:45:52;1.10;;;1.00;;
32094;SDS011;18608;53.688;10.748;2022-09-01T10:50:45;1.03;;;0.80;;
32094;SDS011;18608;53.688;10.748;2022-09-01T11:04:16;1.00;;;0.80;;
32094;SDS011;18608;53.688;10.748;2022-09-01T11:09:32;4.83;;;1.10;;
32094;SDS011;18608;53.688;10.748;2022-09-01T11:14:55;0.90;;;0.90;;
32094;SDS011;18608;53.688;10.748;2022-09-01T11:22:41;0.97;;;0.97;;
32094;SDS011;18608;53.688;10.748;2022-09-01T11:28:09;1.00;;;0.90;;
32094;SDS011;18608;53.688;10.748;2022-09-01T11:39:15;2.03;;;0.80;;
32094;SDS011;18608;53.688;10.748;2022-09-01T11:41:55;0.77;;;0.77;;
32094;SDS011;18608;53.688;10.748;2022-09-01T11:47:02;1.23;;;0.90;;
32094;SDS011;18608;53.688;10.748;2022-09-01T11:49:34;3.27;;;1.07;;
32094;SDS011;18608;53.688;10.748;2022-09-01T11:52:03;3.20;;;1.13;;
32094;SDS011;18608;53.688;10.748;2022-09-01T11:54:35;1.00;;;0.90;;
32094;SDS011;18608;53.688;10.748;2022-09-01T11:57:25;0.80;;;0.80;;
32094;SDS011;18608;53.688;10.748;2022-09-01T11:59:56;2.87;;;1.17;;
32094;SDS011;18608;53.688;10.748;2022-09-01T12:02:29;1.83;;;0.90;;
32094;SDS011;18608;53.688;10.748;2022-09-01T12:05:00;0.97;;;0.70;;
32094;SDS011;18608;53.688;10.748;2022-09-01T12:07:37;2.20;;;0.80;;
32094;SDS011;18608;53.688;10.748;2022-09-01T12:15:26;1.33;;;0.70;;
32094;SDS011;18608;53.688;10.748;2022-09-01T12:18:06;0.73;;;0.73;;
32094;SDS011;18608;53.688;10.748;2022-09-01T12:20:35;1.90;;;0.70;;
32094;SDS011;18608;53.688;10.748;2022-09-01T12:23:26;1.60;;;0.90;;
32094;SDS011;18608;53.688;10.748;2022-09-01T12:25:56;2.07;;;0.70;;
32094;SDS011;18608;53.688;10.748;2022-09-01T12:28:33;0.80;;;0.80;;
32094;SDS011;18608;53.688;10.748;2022-09-01T12:31:01;0.80;;;0.80;;
32094;SDS011;18608;53.688;10.748;2022-09-01T12:33:28;0.90;;;0.90;;
32094;SDS011;18608;53.688;10.748;2022-09-01T12:38:51;1.77;;;0.80;;
32094;SDS011;18608;53.688;10.748;2022-09-01T12:41:27;0.70;;;0.70;;
32094;SDS011;18608;53.688;10.748;2022-09-01T12:46:53;0.67;;;0.67;;
32094;SDS011;18608;53.688;10.748;2022-09-01T12:49:24;0.83;;;0.80;;
32094;SDS011;18608;53.688;10.748;2022-09-01T12:54:43;2.53;;;1.00;;
32094;SDS011;18608;53.688;10.748;2022-09-01T12:57:09;1.40;;;0.77;;
32094;SDS011;18608;53.688;10.748;2022-09-01T12:59:36;1.00;;;0.90;;
32094;SDS011;18608;53.688;10.748;2022-09-01T13:04:50;3.10;;;0.90;;
32094;SDS011;18608;53.688;10.748;2022-09-01T13:07:16;1.20;;;0.80;;
32094;SDS011;18608;53.688;10.748;2022-09-01T13:09:42;10.23;;;1.13;;
32094;SDS011;18608;53.688;10.748;2022-09-01T13:12:08;1.00;;;0.80;;
32094;SDS011;18608;53.688;10.748;2022-09-01T13:14:44;1.20;;;0.80;;
32094;SDS011;18608;53.688;10.748;2022-09-01T13:17:10;0.93;;;0.70;;
32094;SDS011;18608;53.688;10.748;2022-09-01T13:19:36;0.67;;;0.67;;
32094;SDS011;18608;53.688;10.748;2022-09-01T13:22:03;1.57;;;0.83;;
32094;SDS011;18608;53.688;10.748;2022-09-01T13:24:29;1.07;;;0.80;;
32094;SDS011;18608;53.688;10.748;2022-09-01T13:26:54;2.07;;;0.80;;
32094;SDS011;18608;53.688;10.748;2022-09-01T13:29:21;0.70;;;0.70;;
32094;SDS011;18608;53.688;10.748;2022-09-01T13:31:48;0.73;;;0.73;;
32094;SDS011;18608;53.688;10.748;2022-09-01T13:34:13;1.13;;;0.87;;
32094;SDS011;18608;53.688;10.748;2022-09-01T13:36:39;0.70;;;0.70;;
32094;SDS011;18608;53.688;10.748;2022-09-01T13:39:05;0.90;;;0.77;;
32094;SDS011;18608;53.688;10.748;2022-09-01T13:41:30;1.17;;;0.77;;
32094;SDS011;18608;53.688;10.748;2022-09-01T13:43:56;2.60;;;0.87;;
32094;SDS011;18608;53.688;10.748;2022-09-01T13:46:21;0.80;;;0.80;;
32094;SDS011;18608;53.688;10.748;2022-09-01T13:48:47;0.90;;;0.73;;
32094;SDS011;18608;53.688;10.748;2022-09-01T13:51:22;1.00;;;0.87;;
32094;SDS011;18608;53.688;10.748;2022-09-01T13:53:51;2.00;;;0.80;;
32094;SDS011;18608;53.688;10.748;2022-09-01T13:56:17;2.97;;;0.73;;
32094;SDS011;18608;53.688;10.748;2022-09-01T13:58:43;2.23;;;0.80;;
32094;SDS011;18608;53.688;10.748;2022-09-01T14:01:08;1.93;;;0.93;;
32094;SDS011;18608;53.688;10.748;2022-09-01T14:03:34;2.80;;;1.00;;
32094;SDS011;18608;53.688;10.748;2022-09-01T14:06:00;1.07;;;0.90;;
32094;SDS011;18608;53.688;10.748;2022-09-01T14:08:25;0.97;;;0.80;;
32094;SDS011;18608;53.688;10.748;2022-09-01T14:10:51;1.27;;;1.03;;
32094;SDS011;18608;53.688;10.748;2022-09-01T14:13:19;1.30;;;0.80;;
32094;SDS011;18608;53.688;10.748;2022-09-01T14:15:46;0.73;;;0.70;;
32094;SDS011;18608;53.688;10.748;2022-09-01T14:18:13;1.10;;;1.00;;
32094;SDS011;18608;53.688;10.748;2022-09-01T14:20:41;1.53;;;0.97;;
32094;SDS011;18608;53.688;10.748;2022-09-01T14:23:09;2.00;;;0.83;;
32094;SDS011;18608;53.688;10.748;2022-09-01T14:25:35;0.63;;;0.63;;
32094;SDS011;18608;53.688;10.748;2022-09-01T14:28:05;0.80;;;0.80;;
32094;SDS011;18608;53.688;10.748;2022-09-01T14:30:31;0.80;;;0.80;;
32094;SDS011;18608;53.688;10.748;2022-09-01T14:32:58;1.10;;;0.93;;
32094;SDS011;18608;53.688;10.748;2022-09-01T14:35:25;0.80;;;0.80;;
32094;SDS011;18608;53.688;10.748;2022-09-01T14:37:51;0.90;;;0.80;;
32094;SDS011;18608;53.688;10.748;2022-09-01T14:40:19;0.97;;;0.70;;
32094;SDS011;18608;53.688;10.748;2022-09-01T14:42:47;0.80;;;0.80;;
32094;SDS011;18608;53.688;10.748;2022-09-01T14:45:20;1.10;;;1.00;;
32094;SDS011;18608;53.688;10.748;2022-09-01T14:47:49;1.23;;;0.90;;
32094;SDS011;18608;53.688;10.748;2022-09-01T14:50:18;0.80;;;0.80;;
32094;SDS011;18608;53.688;10.748;2022-09-01T14:52:48;1.30;;;0.80;;
32094;SDS011;18608;53.688;10.748;2022-09-01T14:55:16;0.70;;;0.70;;
32094;SDS011;18608;53.688;10.748;2022-09-01T14:57:42;0.90;;;0.80;;
32094;SDS011;18608;53.688;10.748;2022-09-01T15:00:09;0.60;;;0.60;;
32094;SDS011;18608;53.688;10.748;2022-09-01T15:02:36;1.80;;;0.80;;
32094;SDS011;18608;53.688;10.748;2022-09-01T15:05:03;0.80;;;0.70;;
32094;SDS011;18608;53.688;10.748;2022-09-01T15:07:30;1.00;;;0.80;;
32094;SDS011;18608;53.688;10.748;2022-09-01T15:09:55;0.60;;;0.60;;
32094;SDS011;18608;53.688;10.748;2022-09-01T15:12:23;0.90;;;0.70;;
32094;SDS011;18608;53.688;10.748;2022-09-01T15:14:49;0.73;;;0.73;;
32094;SDS011;18608;53.688;10.748;2022-09-01T15:17:14;0.70;;;0.70;;
32094;SDS011;18608;53.688;10.748;2022-09-01T15:19:40;1.20;;;1.10;;
32094;SDS011;18608;53.688;10.748;2022-09-01T15:22:06;4.50;;;0.80;;
32094;SDS011;18608;53.688;10.748;2022-09-01T15:24:33;0.90;;;0.90;;
32094;SDS011;18608;53.688;10.748;2022-09-01T15:26:58;0.87;;;0.87;;
32094;SDS011;18608;53.688;10.748;2022-09-01T15:29:24;0.80;;;0.80;;
32094;SDS011;18608;53.688;10.748;2022-09-01T15:31:49;1.00;;;0.80;;
32094;SDS011;18608;53.688;10.748;2022-09-01T15:34:15;1.10;;;0.70;;
32094;SDS011;18608;53.688;10.748;2022-09-01T15:36:42;7.43;;;0.80;;
32094;SDS011;18608;53.688;10.748;2022-09-01T15:39:09;1.13;;;0.70;;
32094;SDS011;18608;53.688;10.748;2022-09-01T15:41:35;2.30;;;0.90;;
32094;SDS011;18608;53.688;10.748;2022-09-01T15:44:02;0.90;;;0.60;;
32094;SDS011;18608;53.688;10.748;2022-09-01T15:46:32;0.80;;;0.80;;
32094;SDS011;18608;53.688;10.748;2022-09-01T15:49:00;1.43;;;0.80;;
32094;SDS011;18608;53.688;10.748;2022-09-01T15:51:30;0.63;;;0.60;;
32094;SDS011;18608;53.688;10.748;2022-09-01T15:54:01;0.70;;;0.70;;
32094;SDS011;18608;53.688;10.748;2022-09-01T15:56:30;2.40;;;0.70;;
32094;SDS011;18608;53.688;10.748;2022-09-01T15:58:56;0.97;;;0.80;;
32094;SDS011;18608;53.688;10.748;2022-09-01T16:01:23;0.80;;;0.77;;
32094;SDS011;18608;53.688;10.748;2022-09-01T16:03:49;0.70;;;0.67;;
32094;SDS011;18608;53.688;10.748;2022-09-01T16:06:14;3.63;;;0.80;;
32094;SDS011;18608;53.688;10.748;2022-09-01T16:08:40;0.70;;;0.70;;
32094;SDS011;18608;53.688;10.748;2022-09-01T16:11:07;0.83;;;0.80;;